sensor_id;sensor_type;location;lat;lon;timestamp;pressure;altitude;pressure_sealevel;temperature;humidity
86633;BME280;77353;41.632;24.698;2024-03-23T00:54:27;82601.16;;;-1.34;69.05
86633;BME280;77353;41.632;24.698;2024-03-23T00:57:28;82594.19;;;-1.31;68.78
86633;BME280;77353;41.632;24.698;2024-03-23T01:00:29;82585.94;;;-1.15;68.04
86633;BME280;77353;41.632;24.698;2024-03-23T01:03:29;82599.88;;;-1.20;67.65
86633;BME280;77353;41.632;24.698;2024-03-23T01:06:30;82594.91;;;-1.10;66.78
86633;BME280;77353;41.632;24.698;2024-03-23T01:09:32;82588.56;;;-1.15;66.63
86633;BME280;77353;41.632;24.698;2024-03-23T01:12:32;82589.91;;;-1.01;66.40
86633;BME280;77353;41.632;24.698;2024-03-23T01:15:33;82586.31;;;-1.11;65.79
86633;BME280;77353;41.632;24.698;2024-03-23T01:18:34;82585.56;;;-1.19;65.76
86633;BME280;77353;41.632;24.698;2024-03-23T01:21:34;82579.84;;;-1.10;65.75
86633;BME280;77353;41.632;24.698;2024-03-23T01:24:36;82579.34;;;-1.08;65.62
86633;BME280;77353;41.632;24.698;2024-03-23T01:27:37;82588.00;;;-1.21;66.74
86633;BME280;77353;41.632;24.698;2024-03-23T01:30:38;82584.91;;;-1.12;66.52
86633;BME280;77353;41.632;24.698;2024-03-23T01:33:38;82585.56;;;-1.19;66.35
86633;BME280;77353;41.632;24.698;2024-03-23T01:36:39;82590.66;;;-1.13;66.45
86633;BME280;77353;41.632;24.698;2024-03-23T01:39:41;82584.25;;;-1.05;66.46
86633;BME280;77353;41.632;24.698;2024-03-23T01:42:42;82577.22;;;-1.30;66.98
86633;BME280;77353;41.632;24.698;2024-03-23T01:45:42;82585.09;;;-1.10;66.55
86633;BME280;77353;41.632;24.698;2024-03-23T01:48:43;82567.28;;;-1.04;64.97
86633;BME280;77353;41.632;24.698;2024-03-23T01:51:44;82574.09;;;-1.08;64.57
86633;BME280;77353;41.632;24.698;2024-03-23T01:54:47;82575.91;;;-0.96;63.56
86633;BME280;77353;41.632;24.698;2024-03-23T01:57:48;82578.66;;;-0.80;63.51
86633;BME280;77353;41.632;24.698;2024-03-23T02:00:48;82568.47;;;-0.63;62.68
86633;BME280;77353;41.632;24.698;2024-03-23T02:03:49;82568.31;;;-0.86;63.09
86633;BME280;77353;41.632;24.698;2024-03-23T02:06:50;82571.25;;;-0.90;64.28
86633;BME280;77353;41.632;24.698;2024-03-23T02:09:52;82574.19;;;-0.65;63.42
86633;BME280;77353;41.632;24.698;2024-03-23T02:12:53;82574.91;;;-0.64;63.48
86633;BME280;77353;41.632;24.698;2024-03-23T02:15:54;82577.28;;;-1.02;65.08
86633;BME280;77353;41.632;24.698;2024-03-23T02:18:54;82575.50;;;-1.28;64.83
86633;BME280;77353;41.632;24.698;2024-03-23T02:21:55;82576.53;;;-1.10;64.80
86633;BME280;77353;41.632;24.698;2024-03-23T02:24:57;82577.97;;;-1.02;64.69
86633;BME280;77353;41.632;24.698;2024-03-23T02:27:58;82587.94;;;-1.28;65.82
86633;BME280;77353;41.632;24.698;2024-03-23T02:30:59;82584.91;;;-1.12;64.34
86633;BME280;77353;41.632;24.698;2024-03-23T02:33:59;82577.16;;;-0.97;63.81
86633;BME280;77353;41.632;24.698;2024-03-23T02:37:00;82585.03;;;-1.17;64.41
86633;BME280;77353;41.632;24.698;2024-03-23T02:40:02;82580.56;;;-0.81;63.63
86633;BME280;77353;41.632;24.698;2024-03-23T02:43:03;82578.28;;;-0.85;63.20
86633;BME280;77353;41.632;24.698;2024-03-23T02:46:04;82580.78;;;-1.00;63.82
86633;BME280;77353;41.632;24.698;2024-03-23T02:49:05;82586.31;;;-1.11;63.76
86633;BME280;77353;41.632;24.698;2024-03-23T02:52:05;82578.06;;;-0.94;63.42
86633;BME280;77353;41.632;24.698;2024-03-23T02:55:08;82577.09;;;-1.04;64.53
86633;BME280;77353;41.632;24.698;2024-03-23T02:58:08;82581.91;;;-1.36;66.04
86633;BME280;77353;41.632;24.698;2024-03-23T03:01:09;82580.03;;;-1.08;64.45
86633;BME280;77353;41.632;24.698;2024-03-23T03:04:10;82580.38;;;-1.32;64.82
86633;BME280;77353;41.632;24.698;2024-03-23T03:07:10;82575.13;;;-1.32;64.83
86633;BME280;77353;41.632;24.698;2024-03-23T03:10:13;82587.81;;;-1.23;63.85
86633;BME280;77353;41.632;24.698;2024-03-23T03:13:13;82580.38;;;-1.32;64.42
86633;BME280;77353;41.632;24.698;2024-03-23T03:16:14;82574.88;;;-1.21;62.74
86633;BME280;77353;41.632;24.698;2024-03-23T03:19:14;82572.25;;;-1.21;63.24
86633;BME280;77353;41.632;24.698;2024-03-23T03:22:15;82581.41;;;-1.14;63.61
86633;BME280;77353;41.632;24.698;2024-03-23T03:25:17;82574.13;;;-1.29;64.89
86633;BME280;77353;41.632;24.698;2024-03-23T03:28:18;82584.47;;;-1.23;64.49
86633;BME280;77353;41.632;24.698;2024-03-23T03:31:19;82576.72;;;-1.29;65.07
86633;BME280;77353;41.632;24.698;2024-03-23T03:34:19;82572.25;;;-1.21;63.83
86633;BME280;77353;41.632;24.698;2024-03-23T03:37:20;82582.41;;;-1.17;63.42
86633;BME280;77353;41.632;24.698;2024-03-23T03:40:22;82578.63;;;-1.09;63.34
86633;BME280;77353;41.632;24.698;2024-03-23T03:43:22;82585.28;;;-1.08;63.13
86633;BME280;77353;41.632;24.698;2024-03-23T03:46:23;82583.78;;;-0.96;63.09
86633;BME280;77353;41.632;24.698;2024-03-23T03:49:24;82588.94;;;-0.90;62.30
86633;BME280;77353;41.632;24.698;2024-03-23T03:52:24;82592.78;;;-1.12;63.13
86633;BME280;77353;41.632;24.698;2024-03-23T03:55:26;82586.13;;;-0.92;62.21
86633;BME280;77353;41.632;24.698;2024-03-23T03:58:27;82587.72;;;-1.10;62.63
86633;BME280;77353;41.632;24.698;2024-03-23T04:01:28;82585.94;;;-1.15;62.50
86633;BME280;77353;41.632;24.698;2024-03-23T04:04:28;82586.69;;;-1.07;62.11
86633;BME280;77353;41.632;24.698;2024-03-23T04:07:29;82585.34;;;-1.00;60.89
86633;BME280;77353;41.632;24.698;2024-03-23T04:10:31;82585.41;;;-0.93;61.13
86633;BME280;77353;41.632;24.698;2024-03-23T04:13:32;82595.56;;;-0.89;61.10
86633;BME280;77353;41.632;24.698;2024-03-23T04:16:34;82594.72;;;-1.12;62.12
86633;BME280;77353;41.632;24.698;2024-03-23T04:19:35;82590.59;;;-1.00;61.41
86633;BME280;77353;41.632;24.698;2024-03-23T04:22:35;82598.22;;;-1.10;61.33
86633;BME280;77353;41.632;24.698;2024-03-23T04:25:37;82600.72;;;-1.04;61.36
86633;BME280;77353;41.632;24.698;2024-03-23T04:28:38;82593.47;;;-0.62;59.40
86633;BME280;77353;41.632;24.698;2024-03-23T04:31:39;82587.84;;;-0.38;60.16
86633;BME280;77353;41.632;24.698;2024-03-23T04:34:39;82593.06;;;-0.10;57.69
86633;BME280;77353;41.632;24.698;2024-03-23T04:37:40;82597.88;;;0.07;56.63
86633;BME280;77353;41.632;24.698;2024-03-23T04:40:42;82605.63;;;0.20;58.16
86633;BME280;77353;41.632;24.698;2024-03-23T04:43:42;82597.47;;;0.46;56.89
86633;BME280;77353;41.632;24.698;2024-03-23T04:46:43;82596.09;;;0.52;57.30
86633;BME280;77353;41.632;24.698;2024-03-23T04:49:44;82600.50;;;0.57;55.49
86633;BME280;77353;41.632;24.698;2024-03-23T04:52:44;82597.38;;;0.66;55.50
86633;BME280;77353;41.632;24.698;2024-03-23T04:55:46;82595.28;;;0.72;55.36
86633;BME280;77353;41.632;24.698;2024-03-23T04:58:47;82596.69;;;0.89;56.09
86633;BME280;77353;41.632;24.698;2024-03-23T05:01:47;82593.91;;;1.17;54.20
86633;BME280;77353;41.632;24.698;2024-03-23T05:04:48;82596.56;;;1.47;54.39
86633;BME280;77353;41.632;24.698;2024-03-23T05:07:49;82598.13;;;1.65;55.23
86633;BME280;77353;41.632;24.698;2024-03-23T05:10:51;82604.22;;;1.98;52.24
86633;BME280;77353;41.632;24.698;2024-03-23T05:13:51;82588.56;;;2.15;53.77
86633;BME280;77353;41.632;24.698;2024-03-23T05:16:52;82597.88;;;2.63;48.93
86633;BME280;77353;41.632;24.698;2024-03-23T05:19:53;82592.97;;;2.60;50.53
86633;BME280;77353;41.632;24.698;2024-03-23T05:22:54;82592.59;;;2.71;50.07
86633;BME280;77353;41.632;24.698;2024-03-23T05:25:56;82603.03;;;2.53;49.72
86633;BME280;77353;41.632;24.698;2024-03-23T05:28:57;82598.94;;;3.00;48.10
86633;BME280;77353;41.632;24.698;2024-03-23T05:31:58;82597.38;;;2.97;47.81
86633;BME280;77353;41.632;24.698;2024-03-23T05:34:58;82603.16;;;3.84;46.36
86633;BME280;77353;41.632;24.698;2024-03-23T05:37:59;82599.59;;;3.40;45.54
86633;BME280;77353;41.632;24.698;2024-03-23T05:41:01;82611.03;;;3.67;44.17
86633;BME280;77353;41.632;24.698;2024-03-23T05:44:02;82604.13;;;3.96;44.29
86633;BME280;77353;41.632;24.698;2024-03-23T05:47:03;82600.28;;;3.90;44.73
86633;BME280;77353;41.632;24.698;2024-03-23T05:50:04;82604.13;;;3.96;43.93
86633;BME280;77353;41.632;24.698;2024-03-23T05:53:05;82606.34;;;4.25;45.17
86633;BME280;77353;41.632;24.698;2024-03-23T05:56:07;82613.00;;;4.26;42.85
86633;BME280;77353;41.632;24.698;2024-03-23T05:59:07;82611.81;;;4.78;44.31
86633;BME280;77353;41.632;24.698;2024-03-23T06:02:08;82607.53;;;4.82;41.90
86633;BME280;77353;41.632;24.698;2024-03-23T06:05:08;82615.69;;;4.77;42.28
86633;BME280;77353;41.632;24.698;2024-03-23T06:08:09;82616.56;;;4.79;41.44
86633;BME280;77353;41.632;24.698;2024-03-23T06:11:11;82607.97;;;5.32;40.92
86633;BME280;77353;41.632;24.698;2024-03-23T06:14:12;82619.94;;;5.50;40.14
86633;BME280;77353;41.632;24.698;2024-03-23T06:17:12;82608.00;;;5.85;42.11
86633;BME280;77353;41.632;24.698;2024-03-23T06:20:13;82615.16;;;6.48;41.83
86633;BME280;77353;41.632;24.698;2024-03-23T06:23:14;82612.34;;;6.27;39.62
86633;BME280;77353;41.632;24.698;2024-03-23T06:26:16;82616.34;;;6.18;38.74
86633;BME280;77353;41.632;24.698;2024-03-23T06:29:17;82622.38;;;7.03;43.56
86633;BME280;77353;41.632;24.698;2024-03-23T06:32:18;82624.78;;;7.08;40.60
86633;BME280;77353;41.632;24.698;2024-03-23T06:35:18;82616.97;;;6.36;41.87
86633;BME280;77353;41.632;24.698;2024-03-23T06:38:19;82621.72;;;5.92;41.85
86633;BME280;77353;41.632;24.698;2024-03-23T06:41:21;82620.97;;;6.83;50.00
86633;BME280;77353;41.632;24.698;2024-03-23T06:44:22;82627.22;;;7.83;40.13
86633;BME280;77353;41.632;24.698;2024-03-23T06:47:22;82630.22;;;7.39;40.62
86633;BME280;77353;41.632;24.698;2024-03-23T06:50:23;82629.44;;;6.62;39.31
86633;BME280;77353;41.632;24.698;2024-03-23T06:53:24;82636.41;;;6.48;41.70
86633;BME280;77353;41.632;24.698;2024-03-23T06:56:26;82635.09;;;6.76;39.83
86633;BME280;77353;41.632;24.698;2024-03-23T06:59:26;82627.38;;;6.15;40.96
86633;BME280;77353;41.632;24.698;2024-03-23T07:02:27;82638.94;;;6.10;41.34
86633;BME280;77353;41.632;24.698;2024-03-23T07:05:27;82645.00;;;6.65;41.42
86633;BME280;77353;41.632;24.698;2024-03-23T07:08:28;82635.59;;;6.55;41.61
86633;BME280;77353;41.632;24.698;2024-03-23T07:11:30;82635.47;;;6.62;42.98
86633;BME280;77353;41.632;24.698;2024-03-23T07:14:31;82638.91;;;7.30;41.49
86633;BME280;77353;41.632;24.698;2024-03-23T07:17:32;82644.78;;;7.09;40.82
86633;BME280;77353;41.632;24.698;2024-03-23T07:20:32;82650.53;;;7.34;40.66
86633;BME280;77353;41.632;24.698;2024-03-23T07:23:33;82651.78;;;7.33;39.47
86633;BME280;77353;41.632;24.698;2024-03-23T07:26:35;82642.69;;;7.36;39.62
86633;BME280;77353;41.632;24.698;2024-03-23T07:29:36;82645.94;;;8.84;40.67
86633;BME280;77353;41.632;24.698;2024-03-23T07:32:37;82645.16;;;8.72;40.60
86633;BME280;77353;41.632;24.698;2024-03-23T07:35:37;82643.34;;;8.44;40.13
86633;BME280;77353;41.632;24.698;2024-03-23T07:38:40;82647.97;;;8.74;35.27
86633;BME280;77353;41.632;24.698;2024-03-23T07:41:44;82637.44;;;7.96;36.90
86633;BME280;77353;41.632;24.698;2024-03-23T07:44:44;82640.19;;;8.26;35.67
86633;BME280;77353;41.632;24.698;2024-03-23T07:47:45;82643.41;;;8.86;33.72
86633;BME280;77353;41.632;24.698;2024-03-23T07:50:46;82642.03;;;9.06;37.95
86633;BME280;77353;41.632;24.698;2024-03-23T07:53:46;82645.59;;;8.99;33.72
86633;BME280;77353;41.632;24.698;2024-03-23T07:56:48;82649.63;;;8.79;35.37
86633;BME280;77353;41.632;24.698;2024-03-23T07:59:49;82647.97;;;8.74;35.54
86633;BME280;77353;41.632;24.698;2024-03-23T08:02:51;82645.78;;;9.55;31.59
86633;BME280;77353;41.632;24.698;2024-03-23T08:05:51;82641.94;;;9.47;33.85
86633;BME280;77353;41.632;24.698;2024-03-23T08:08:54;82644.66;;;9.37;34.31
86633;BME280;77353;41.632;24.698;2024-03-23T08:11:56;82643.69;;;9.75;33.90
86633;BME280;77353;41.632;24.698;2024-03-23T08:14:57;82648.09;;;9.49;35.32
86633;BME280;77353;41.632;24.698;2024-03-23T08:17:57;82642.94;;;8.38;30.77
86633;BME280;77353;41.632;24.698;2024-03-23T08:20:59;82647.25;;;8.43;35.24
86633;BME280;77353;41.632;24.698;2024-03-23T08:24:00;82645.47;;;9.18;34.21
86633;BME280;77353;41.632;24.698;2024-03-23T08:27:02;82645.41;;;9.07;35.14
86633;BME280;77353;41.632;24.698;2024-03-23T08:30:03;82644.91;;;8.99;31.03
86633;BME280;77353;41.632;24.698;2024-03-23T08:33:04;82646.00;;;8.75;32.31
86633;BME280;77353;41.632;24.698;2024-03-23T08:36:05;82645.59;;;8.38;32.80
86633;BME280;77353;41.632;24.698;2024-03-23T08:39:06;82648.78;;;9.29;33.92
86633;BME280;77353;41.632;24.698;2024-03-23T08:42:08;82647.13;;;9.66;31.72
86633;BME280;77353;41.632;24.698;2024-03-23T08:45:09;82635.25;;;9.15;33.50
86633;BME280;77353;41.632;24.698;2024-03-23T08:48:10;82642.44;;;9.12;32.63
86633;BME280;77353;41.632;24.698;2024-03-23T08:51:12;82641.09;;;9.23;29.55
86633;BME280;77353;41.632;24.698;2024-03-23T08:54:13;82636.19;;;9.41;29.69
86633;BME280;77353;41.632;24.698;2024-03-23T08:57:15;82638.50;;;9.56;29.24
86633;BME280;77353;41.632;24.698;2024-03-23T09:00:16;82636.78;;;8.97;28.47
86633;BME280;77353;41.632;24.698;2024-03-23T09:03:17;82636.06;;;8.75;28.41
86633;BME280;77353;41.632;24.698;2024-03-23T09:06:17;82635.56;;;9.09;27.99
86633;BME280;77353;41.632;24.698;2024-03-23T09:09:18;82626.69;;;9.38;30.90
86633;BME280;77353;41.632;24.698;2024-03-23T09:12:20;82635.81;;;8.92;38.70
86633;BME280;77353;41.632;24.698;2024-03-23T09:15:21;82630.47;;;8.92;38.04
86633;BME280;77353;41.632;24.698;2024-03-23T09:18:22;82628.84;;;8.57;39.20
86633;BME280;77353;41.632;24.698;2024-03-23T09:21:22;82612.47;;;8.41;38.55
86633;BME280;77353;41.632;24.698;2024-03-23T09:24:23;82616.69;;;7.94;40.52
86633;BME280;77353;41.632;24.698;2024-03-23T09:27:25;82619.34;;;8.96;39.65
86633;BME280;77353;41.632;24.698;2024-03-23T09:30:26;82616.34;;;8.59;40.29
86633;BME280;77353;41.632;24.698;2024-03-23T09:33:26;82612.88;;;9.41;38.41
86633;BME280;77353;41.632;24.698;2024-03-23T09:36:27;82615.00;;;9.22;39.76
86633;BME280;77353;41.632;24.698;2024-03-23T09:39:28;82615.44;;;8.97;39.51
86633;BME280;77353;41.632;24.698;2024-03-23T09:42:30;82611.34;;;8.04;39.41
86633;BME280;77353;41.632;24.698;2024-03-23T09:45:30;82617.41;;;8.45;38.36
86633;BME280;77353;41.632;24.698;2024-03-23T09:48:33;82595.22;;;8.73;40.76
86633;BME280;77353;41.632;24.698;2024-03-23T09:51:36;82593.09;;;9.23;38.33
86633;BME280;77353;41.632;24.698;2024-03-23T09:54:36;82597.22;;;9.14;38.54
86633;BME280;77353;41.632;24.698;2024-03-23T09:57:38;82595.72;;;8.60;37.90
86633;BME280;77353;41.632;24.698;2024-03-23T10:00:39;82589.97;;;8.84;39.05
86633;BME280;77353;41.632;24.698;2024-03-23T10:03:43;82592.88;;;8.88;38.14
86633;BME280;77353;41.632;24.698;2024-03-23T10:06:44;82591.41;;;8.76;38.67
86633;BME280;77353;41.632;24.698;2024-03-23T10:09:45;82606.50;;;9.13;37.24
86633;BME280;77353;41.632;24.698;2024-03-23T10:12:48;82595.72;;;8.29;38.68
86633;BME280;77353;41.632;24.698;2024-03-23T10:15:54;82591.81;;;7.71;38.25
86633;BME280;77353;41.632;24.698;2024-03-23T10:18:55;82589.84;;;7.62;39.43
86633;BME280;77353;41.632;24.698;2024-03-23T10:21:56;82595.09;;;6.93;40.35
86633;BME280;77353;41.632;24.698;2024-03-23T10:25:07;82582.91;;;6.51;41.82
86633;BME280;77353;41.632;24.698;2024-03-23T10:28:09;82590.88;;;6.80;41.17
86633;BME280;77353;41.632;24.698;2024-03-23T10:31:11;82583.91;;;7.04;39.05
86633;BME280;77353;41.632;24.698;2024-03-23T10:34:12;82578.16;;;6.59;40.35
86633;BME280;77353;41.632;24.698;2024-03-23T10:37:13;82584.56;;;6.56;39.79
86633;BME280;77353;41.632;24.698;2024-03-23T10:40:13;82568.81;;;7.06;39.33
86633;BME280;77353;41.632;24.698;2024-03-23T10:43:15;82571.19;;;6.83;38.74
86633;BME280;77353;41.632;24.698;2024-03-23T10:46:16;82571.72;;;6.72;42.34
86633;BME280;77353;41.632;24.698;2024-03-23T10:49:17;82562.91;;;6.50;41.93
86633;BME280;77353;41.632;24.698;2024-03-23T10:52:17;82555.22;;;7.21;40.55
86633;BME280;77353;41.632;24.698;2024-03-23T10:55:19;82567.97;;;6.94;41.57
86633;BME280;77353;41.632;24.698;2024-03-23T10:58:26;82564.91;;;6.88;40.67
86633;BME280;77353;41.632;24.698;2024-03-23T11:01:27;82549.47;;;7.34;42.48
86633;BME280;77353;41.632;24.698;2024-03-23T11:04:31;82551.63;;;8.07;40.26
86633;BME280;77353;41.632;24.698;2024-03-23T11:07:33;82557.94;;;7.62;39.72
86633;BME280;77353;41.632;24.698;2024-03-23T11:10:33;82549.09;;;6.90;41.54
86633;BME280;77353;41.632;24.698;2024-03-23T11:13:35;82548.78;;;8.14;39.86
86633;BME280;77353;41.632;24.698;2024-03-23T11:16:36;82526.88;;;7.54;40.50
86633;BME280;77353;41.632;24.698;2024-03-23T11:19:37;82543.75;;;6.81;40.28
86633;BME280;77353;41.632;24.698;2024-03-23T11:22:40;82544.16;;;7.34;40.48
86633;BME280;77353;41.632;24.698;2024-03-23T11:25:40;82530.91;;;7.55;40.80
86633;BME280;77353;41.632;24.698;2024-03-23T11:28:42;82529.28;;;7.41;40.66
86633;BME280;77353;41.632;24.698;2024-03-23T11:31:46;82531.44;;;7.64;40.99
86633;BME280;77353;41.632;24.698;2024-03-23T11:34:47;82531.63;;;7.96;40.14
86633;BME280;77353;41.632;24.698;2024-03-23T11:38:01;82537.00;;;7.87;38.72
86633;BME280;77353;41.632;24.698;2024-03-23T11:41:02;82524.47;;;7.59;39.93
86633;BME280;77353;41.632;24.698;2024-03-23T11:44:16;82525.09;;;7.78;39.11
86633;BME280;77353;41.632;24.698;2024-03-23T11:47:17;82529.47;;;7.05;40.51
86633;BME280;77353;41.632;24.698;2024-03-23T11:50:20;82517.53;;;7.84;43.42
86633;BME280;77353;41.632;24.698;2024-03-23T11:53:22;82518.59;;;6.82;40.02
86633;BME280;77353;41.632;24.698;2024-03-23T11:56:22;82520.81;;;6.56;40.13
86633;BME280;77353;41.632;24.698;2024-03-23T11:59:35;82504.06;;;6.92;40.33
86633;BME280;77353;41.632;24.698;2024-03-23T12:02:36;82501.25;;;7.49;39.81
86633;BME280;77353;41.632;24.698;2024-03-23T12:05:37;82509.38;;;7.51;39.17
86633;BME280;77353;41.632;24.698;2024-03-23T12:08:37;82502.88;;;7.74;39.27
86633;BME280;77353;41.632;24.698;2024-03-23T12:11:38;82484.28;;;7.95;39.13
86633;BME280;77353;41.632;24.698;2024-03-23T12:14:40;82488.69;;;7.81;39.05
86633;BME280;77353;41.632;24.698;2024-03-23T12:17:41;82489.19;;;7.58;38.93
86633;BME280;77353;41.632;24.698;2024-03-23T12:20:42;82494.47;;;7.68;38.97
86633;BME280;77353;41.632;24.698;2024-03-23T12:23:43;82489.28;;;7.29;40.27
86633;BME280;77353;41.632;24.698;2024-03-23T12:26:43;82487.09;;;7.16;40.73
86633;BME280;77353;41.632;24.698;2024-03-23T12:29:46;82481.03;;;7.35;41.63
86633;BME280;77353;41.632;24.698;2024-03-23T12:32:47;82486.25;;;7.54;40.82
86633;BME280;77353;41.632;24.698;2024-03-23T12:35:48;82489.16;;;7.68;40.73
86633;BME280;77353;41.632;24.698;2024-03-23T12:38:48;82477.22;;;7.78;39.56
86633;BME280;77353;41.632;24.698;2024-03-23T12:41:49;82485.16;;;7.57;41.40
86633;BME280;77353;41.632;24.698;2024-03-23T12:44:51;82491.41;;;7.62;40.59
86633;BME280;77353;41.632;24.698;2024-03-23T12:47:52;82474.06;;;7.11;42.63
86633;BME280;77353;41.632;24.698;2024-03-23T12:50:54;82480.59;;;7.38;42.92
86633;BME280;77353;41.632;24.698;2024-03-23T12:53:55;82475.13;;;7.27;42.06
86633;BME280;77353;41.632;24.698;2024-03-23T12:56:55;82474.22;;;7.03;42.93
86633;BME280;77353;41.632;24.698;2024-03-23T12:59:57;82470.91;;;6.84;44.23
86633;BME280;77353;41.632;24.698;2024-03-23T13:02:58;82474.41;;;7.76;46.34
86633;BME280;77353;41.632;24.698;2024-03-23T13:05:59;82472.91;;;7.33;43.40
86633;BME280;77353;41.632;24.698;2024-03-23T13:08:59;82469.03;;;7.05;43.90
86633;BME280;77353;41.632;24.698;2024-03-23T13:12:00;82467.38;;;6.91;45.55
86633;BME280;77353;41.632;24.698;2024-03-23T13:15:02;82466.56;;;6.88;47.12
86633;BME280;77353;41.632;24.698;2024-03-23T13:18:03;82477.63;;;6.75;48.00
86633;BME280;77353;41.632;24.698;2024-03-23T13:21:04;82464.63;;;6.69;47.73
86633;BME280;77353;41.632;24.698;2024-03-23T13:24:05;82456.63;;;6.79;48.09
86633;BME280;77353;41.632;24.698;2024-03-23T13:27:06;82461.53;;;6.83;48.14
86633;BME280;77353;41.632;24.698;2024-03-23T13:30:09;82457.19;;;6.68;49.54
86633;BME280;77353;41.632;24.698;2024-03-23T13:33:10;82452.16;;;6.72;50.06
86633;BME280;77353;41.632;24.698;2024-03-23T13:36:11;82448.53;;;6.58;51.11
86633;BME280;77353;41.632;24.698;2024-03-23T13:39:12;82456.81;;;6.43;51.46
86633;BME280;77353;41.632;24.698;2024-03-23T13:42:12;82450.81;;;6.33;51.51
86633;BME280;77353;41.632;24.698;2024-03-23T13:45:15;82455.56;;;6.25;52.26
86633;BME280;77353;41.632;24.698;2024-03-23T13:48:15;82454.97;;;5.98;53.16
86633;BME280;77353;41.632;24.698;2024-03-23T13:51:23;82450.63;;;5.93;52.68
86633;BME280;77353;41.632;24.698;2024-03-23T13:54:24;82438.34;;;5.97;53.93
86633;BME280;77353;41.632;24.698;2024-03-23T13:57:24;82449.53;;;5.96;54.28
86633;BME280;77353;41.632;24.698;2024-03-23T14:00:26;82437.66;;;6.06;54.77
86633;BME280;77353;41.632;24.698;2024-03-23T14:03:27;82444.44;;;5.80;55.10
86633;BME280;77353;41.632;24.698;2024-03-23T14:06:28;82445.88;;;5.91;54.41
86633;BME280;77353;41.632;24.698;2024-03-23T14:09:28;82438.47;;;5.90;56.26
86633;BME280;77353;41.632;24.698;2024-03-23T14:12:29;82449.25;;;6.01;56.71
86633;BME280;77353;41.632;24.698;2024-03-23T14:15:31;82449.38;;;5.94;57.01
86633;BME280;77353;41.632;24.698;2024-03-23T14:18:32;82453.22;;;5.73;58.47
86633;BME280;77353;41.632;24.698;2024-03-23T14:21:33;82449.50;;;5.40;59.59
86633;BME280;77353;41.632;24.698;2024-03-23T14:24:33;82452.16;;;5.31;60.01
86633;BME280;77353;41.632;24.698;2024-03-23T14:27:34;82448.44;;;5.62;59.23
86633;BME280;77353;41.632;24.698;2024-03-23T14:30:36;82449.69;;;5.52;59.98
86633;BME280;77353;41.632;24.698;2024-03-23T14:33:37;82446.31;;;5.42;60.36
86633;BME280;77353;41.632;24.698;2024-03-23T14:36:38;82445.03;;;5.33;60.91
86633;BME280;77353;41.632;24.698;2024-03-23T14:39:38;82440.41;;;5.34;61.26
86633;BME280;77353;41.632;24.698;2024-03-23T14:42:39;82436.31;;;5.14;61.84
86633;BME280;77353;41.632;24.698;2024-03-23T14:49:04;82435.56;;;5.40;61.53
86633;BME280;77353;41.632;24.698;2024-03-23T14:52:05;82426.13;;;5.65;61.52
86633;BME280;77353;41.632;24.698;2024-03-23T14:55:06;82430.59;;;5.72;62.32
86633;BME280;77353;41.632;24.698;2024-03-23T14:58:07;82429.41;;;6.21;59.65
86633;BME280;77353;41.632;24.698;2024-03-23T15:01:09;82429.25;;;5.91;60.38
86633;BME280;77353;41.632;24.698;2024-03-23T15:04:09;82440.28;;;5.87;60.43
86633;BME280;77353;41.632;24.698;2024-03-23T15:07:10;82434.75;;;5.56;61.97
86633;BME280;77353;41.632;24.698;2024-03-23T15:10:11;82436.75;;;5.65;62.12
86633;BME280;77353;41.632;24.698;2024-03-23T15:13:11;82431.38;;;5.46;61.29
86633;BME280;77353;41.632;24.698;2024-03-23T15:16:16;82425.41;;;5.55;59.85
86633;BME280;77353;41.632;24.698;2024-03-23T15:19:18;82424.28;;;5.49;60.46
86633;BME280;77353;41.632;24.698;2024-03-23T15:22:18;82428.41;;;5.23;60.52
86633;BME280;77353;41.632;24.698;2024-03-23T15:25:19;82423.47;;;4.74;62.26
86633;BME280;77353;41.632;24.698;2024-03-23T15:28:20;82414.53;;;5.05;60.85
86633;BME280;77353;41.632;24.698;2024-03-23T15:31:22;82413.88;;;5.15;60.43
86633;BME280;77353;41.632;24.698;2024-03-23T15:34:23;82412.88;;;5.10;61.85
86633;BME280;77353;41.632;24.698;2024-03-23T15:37:23;82415.22;;;5.06;60.80
86633;BME280;77353;41.632;24.698;2024-03-23T15:40:24;82409.34;;;4.98;61.40
86633;BME280;77353;41.632;24.698;2024-03-23T15:43:25;82412.78;;;4.91;61.17
86633;BME280;77353;41.632;24.698;2024-03-23T15:46:27;82418.66;;;4.89;61.63
86633;BME280;77353;41.632;24.698;2024-03-23T15:49:28;82407.31;;;4.79;61.85
86633;BME280;77353;41.632;24.698;2024-03-23T15:52:28;82405.81;;;4.86;62.02
86633;BME280;77353;41.632;24.698;2024-03-23T15:55:29;82406.75;;;4.81;61.87
86633;BME280;77353;41.632;24.698;2024-03-23T15:58:31;82407.91;;;4.87;61.82
86633;BME280;77353;41.632;24.698;2024-03-23T16:01:34;82404.59;;;4.96;61.22
86633;BME280;77353;41.632;24.698;2024-03-23T16:04:35;82408.75;;;4.90;61.56
86633;BME280;77353;41.632;24.698;2024-03-23T16:07:36;82413.09;;;4.95;61.77
86633;BME280;77353;41.632;24.698;2024-03-23T16:10:37;82406.22;;;5.28;60.82
86633;BME280;77353;41.632;24.698;2024-03-23T16:13:37;82401.22;;;5.42;60.38
86633;BME280;77353;41.632;24.698;2024-03-23T16:16:40;82407.56;;;5.10;60.90
86633;BME280;77353;41.632;24.698;2024-03-23T16:19:41;82406.13;;;4.90;61.13
86633;BME280;77353;41.632;24.698;2024-03-23T16:22:41;82401.88;;;5.14;61.11
86633;BME280;77353;41.632;24.698;2024-03-23T16:25:46;82411.03;;;5.03;61.01
86633;BME280;77353;41.632;24.698;2024-03-23T16:28:47;82403.41;;;5.17;60.51
86633;BME280;77353;41.632;24.698;2024-03-23T16:31:49;82402.06;;;5.25;60.10
86633;BME280;77353;41.632;24.698;2024-03-23T16:34:50;82401.78;;;5.31;60.50
86633;BME280;77353;41.632;24.698;2024-03-23T16:37:51;82403.59;;;5.38;59.95
86633;BME280;77353;41.632;24.698;2024-03-23T16:40:58;82402.09;;;5.44;59.80
86633;BME280;77353;41.632;24.698;2024-03-23T16:43:58;82395.41;;;5.43;59.38
86633;BME280;77353;41.632;24.698;2024-03-23T16:47:00;82395.13;;;5.58;58.80
86633;BME280;77353;41.632;24.698;2024-03-23T16:50:01;82385.22;;;5.59;58.22
86633;BME280;77353;41.632;24.698;2024-03-23T16:53:02;82394.13;;;5.54;58.55